createdAt,value
2019-03-15T04:25:40.459Z,11.50
2019-03-15T04:28:09.753Z,9.17
2019-03-15T04:30:40.079Z,7.27
2019-03-15T04:33:10.382Z,9.97
2019-03-15T04:35:40.690Z,10.60
2019-03-15T04:38:11.071Z,7.27
2019-03-15T04:40:41.476Z,13.73
2019-03-15T04:43:11.802Z,12.43
2019-03-15T04:45:42.142Z,12.60
2019-03-15T04:48:12.569Z,10.60
2019-03-15T04:50:42.857Z,12.80
2019-03-15T04:53:13.165Z,10.40
2019-03-15T04:55:43.435Z,7.50
2019-03-15T04:58:13.767Z,11.80
2019-03-15T05:00:44.123Z,11.30
2019-03-15T05:03:14.458Z,8.97
2019-03-15T05:06:17.814Z,12.50
2019-03-15T05:08:48.173Z,8.37
2019-03-15T05:11:18.490Z,14.10
2019-03-15T05:13:48.848Z,13.17
2019-03-15T05:16:19.153Z,12.17
2019-03-15T05:18:49.488Z,11.97
2019-03-15T05:21:19.849Z,10.30
2019-03-15T05:23:50.202Z,9.33
2019-03-15T05:26:20.533Z,15.23
2019-03-15T05:28:50.885Z,9.80
2019-03-15T05:31:21.200Z,9.43
2019-03-15T05:33:51.557Z,10.63
2019-03-15T05:36:21.904Z,9.90
2019-03-15T05:38:52.248Z,9.50
2019-03-15T05:41:22.583Z,12.23
2019-03-15T05:43:53.274Z,10.70
2019-03-15T05:46:23.689Z,9.63
2019-03-15T05:48:54.023Z,10.30
2019-03-15T05:51:24.356Z,13.37
2019-03-15T05:53:54.668Z,12.07
2019-03-15T05:56:25.030Z,12.53
2019-03-15T05:58:55.337Z,12.27
2019-03-15T06:01:25.678Z,11.87
2019-03-15T06:03:55.990Z,17.27
2019-03-15T06:06:26.342Z,19.33
2019-03-15T06:08:57.001Z,19.23
2019-03-15T06:11:27.448Z,18.47
2019-03-15T06:13:57.943Z,13.73
2019-03-15T06:16:28.362Z,14.07
2019-03-15T06:18:59.003Z,12.77
2019-03-15T06:21:29.468Z,13.17
2019-03-15T06:24:00.091Z,10.23
2019-03-15T06:26:30.542Z,9.00
2019-03-15T06:29:01.771Z,13.00
2019-03-15T06:31:32.279Z,10.50
2019-03-15T06:34:02.537Z,10.87
2019-03-15T06:36:33.542Z,17.50
2019-03-15T06:39:05.566Z,13.67
2019-03-15T06:41:39.113Z,16.57
2019-03-15T06:44:09.473Z,11.97
2019-03-15T06:46:39.836Z,12.43
2019-03-15T06:49:10.730Z,11.03
2019-03-15T06:51:41.145Z,13.03
2019-03-15T06:54:12.101Z,19.57
2019-03-15T06:56:46.170Z,15.63
2019-03-15T06:59:16.735Z,15.47
2019-03-15T07:01:47.425Z,21.83
2019-03-15T07:04:18.198Z,18.67
2019-03-15T07:06:48.714Z,28.20
2019-03-15T07:09:19.582Z,19.70
2019-03-15T07:11:50.071Z,22.90
2019-03-15T07:14:20.416Z,17.63
2019-03-15T07:16:52.255Z,20.50
2019-03-15T07:19:28.886Z,15.53
2019-03-15T07:21:59.479Z,12.57
2019-03-15T07:24:31.134Z,20.47
2019-03-15T07:27:11.996Z,18.10
2019-03-15T07:29:33.452Z,14.13
2019-03-15T07:32:03.814Z,16.70
2019-03-15T07:34:34.194Z,18.90
2019-03-15T07:37:04.878Z,18.50
2019-03-15T07:39:35.534Z,14.90
2019-03-15T07:42:06.954Z,16.20
2019-03-15T07:44:40.509Z,14.93
2019-03-15T07:47:10.828Z,12.93
2019-03-15T07:49:41.133Z,14.23
2019-03-15T07:52:12.858Z,17.83
2019-03-15T07:54:44.986Z,17.27
2019-03-15T07:57:17.260Z,16.60
2019-03-15T07:59:48.086Z,17.27
2019-03-15T08:02:19.545Z,17.17
2019-03-15T08:04:55.105Z,22.27
2019-03-15T08:07:35.728Z,18.50
2019-03-15T08:09:58.454Z,13.63
2019-03-15T08:12:30.388Z,19.77
2019-03-15T08:15:01.734Z,20.63
2019-03-15T08:17:32.651Z,20.03
2019-03-15T08:20:04.125Z,21.37
2019-03-15T08:22:36.247Z,17.40
2019-03-15T08:25:08.415Z,17.53
2019-03-15T08:27:44.630Z,17.57
2019-03-15T08:30:18.929Z,19.37
2019-03-15T08:32:50.779Z,16.77
2019-03-15T08:35:24.513Z,15.87
2019-03-15T08:37:56.195Z,18.30
2019-03-15T08:40:27.568Z,23.00
2019-03-15T08:42:58.962Z,23.43
2019-03-15T08:45:29.909Z,24.57
2019-03-15T08:48:00.375Z,19.03
2019-03-15T08:50:30.836Z,17.07
2019-03-15T08:53:01.244Z,18.73
2019-03-15T08:55:32.556Z,14.93
2019-03-15T08:58:13.318Z,19.30
2019-03-15T09:00:37.366Z,19.93
2019-03-15T09:03:09.619Z,12.90
2019-03-15T09:05:39.929Z,17.70
2019-03-15T09:08:10.393Z,14.90
2019-03-15T09:10:41.551Z,16.63
2019-03-15T09:13:13.528Z,13.73
2019-03-15T09:15:44.641Z,14.77
2019-03-15T09:18:18.146Z,13.20
2019-03-15T09:20:48.749Z,14.60
2019-03-15T09:23:19.067Z,14.07
2019-03-15T09:25:49.387Z,12.57
2019-03-15T09:28:19.713Z,11.10
2019-03-15T09:30:50.030Z,15.83
2019-03-15T09:33:20.320Z,11.87
2019-03-15T09:35:51.594Z,11.57
2019-03-15T09:38:21.892Z,10.33
2019-03-15T09:40:52.325Z,11.27
2019-03-15T09:43:22.701Z,9.77
2019-03-15T09:45:55.526Z,14.00
2019-03-15T09:48:25.007Z,12.20
2019-03-15T09:50:55.293Z,14.47
2019-03-15T09:53:25.569Z,8.87
2019-03-15T09:55:55.898Z,13.77
2019-03-15T09:58:26.186Z,11.93
2019-03-15T10:00:57.105Z,14.03
2019-03-15T10:03:27.922Z,13.30
2019-03-15T10:05:58.233Z,12.93
2019-03-15T10:08:28.621Z,11.17
2019-03-15T10:10:58.945Z,14.23
2019-03-15T10:13:29.301Z,13.07
2019-03-15T10:15:59.573Z,11.43
2019-03-15T10:18:29.910Z,8.67
2019-03-15T10:21:00.224Z,9.17
2019-03-15T10:23:30.765Z,9.20
2019-03-15T10:26:01.244Z,6.60
2019-03-15T10:28:31.597Z,6.03
2019-03-15T10:31:01.984Z,7.00
2019-03-15T10:33:32.323Z,5.43
2019-03-15T10:36:02.633Z,6.50
2019-03-15T10:38:33.291Z,5.57
2019-03-15T10:41:03.635Z,7.17
2019-03-15T10:43:34.634Z,4.77
2019-03-15T10:46:06.302Z,6.00
2019-03-15T10:48:36.860Z,5.77
2019-03-15T10:51:07.185Z,5.67
2019-03-15T10:53:37.570Z,6.63
2019-03-15T10:56:07.861Z,6.07
2019-03-15T10:58:38.217Z,5.97
2019-03-15T11:01:08.626Z,7.03
2019-03-15T11:03:39.066Z,6.07
2019-03-15T11:06:09.418Z,7.37
2019-03-15T11:08:39.732Z,4.07
2019-03-15T11:11:10.046Z,4.07
2019-03-15T11:13:40.403Z,3.33
2019-03-15T11:16:10.714Z,1.20
2019-03-15T11:18:41.087Z,0.90
2019-03-15T11:21:11.355Z,0.40
2019-03-15T11:23:41.719Z,0.60
2019-03-15T11:26:13.852Z,0.30
2019-03-15T11:28:43.963Z,1.00
2019-03-15T11:31:14.293Z,1.40
2019-03-15T11:33:47.283Z,1.07
2019-03-15T11:36:16.570Z,1.50
2019-03-15T11:38:46.863Z,0.70
2019-03-15T11:41:17.172Z,0.73
2019-03-15T11:43:47.508Z,0.70
2019-03-15T11:46:17.863Z,1.13
2019-03-15T11:49:02.205Z,0.60
2019-03-15T11:51:32.532Z,1.17
2019-03-15T11:54:02.858Z,0.37
2019-03-15T11:56:35.262Z,0.37
2019-03-15T11:59:05.562Z,0.30
2019-03-15T12:01:37.829Z,0.30
2019-03-15T12:04:08.374Z,0.20
2019-03-15T12:06:46.054Z,0.30
2019-03-15T12:09:17.178Z,0.40
2019-03-15T12:11:54.806Z,0.20
2019-03-15T12:14:40.443Z,1.03
2019-03-15T12:17:06.677Z,0.30
2019-03-15T12:19:48.310Z,0.77
2019-03-15T12:22:09.764Z,0.40
2019-03-15T12:24:46.920Z,0.43
2019-03-15T12:27:14.176Z,0.20
2019-03-15T12:31:41.499Z,0.20
2019-03-15T12:32:24.028Z,0.20
2019-03-15T12:34:58.404Z,0.30
2019-03-15T12:37:36.585Z,0.30
2019-03-15T12:40:10.877Z,1.23
2019-03-15T12:42:42.036Z,0.23
2019-03-15T12:45:17.533Z,0.30
2019-03-15T12:47:51.320Z,0.30
2019-03-15T12:50:21.793Z,0.13
2019-03-15T12:52:53.935Z,0.30
2019-03-15T12:55:47.260Z,0.57
2019-03-15T12:58:23.181Z,0.77
2019-03-15T13:00:58.330Z,1.20
2019-03-15T13:03:28.852Z,0.67
2019-03-15T13:09:23.876Z,0.50
2019-03-15T13:12:03.060Z,0.10
2019-03-15T13:14:33.435Z,0.77
2019-03-15T13:17:21.474Z,0.57
2019-03-15T13:19:55.422Z,0.20
2019-03-15T13:22:25.417Z,1.00
2019-03-15T13:24:56.302Z,0.53
2019-03-15T13:27:27.929Z,0.40
2019-03-15T13:29:59.083Z,0.90
2019-03-15T13:32:30.345Z,0.37
2019-03-15T13:35:01.077Z,0.40
2019-03-15T13:37:55.720Z,0.93
2019-03-15T13:40:32.213Z,0.47
2019-03-15T13:43:02.361Z,0.60
2019-03-15T13:45:34.339Z,0.33
2019-03-15T13:48:44.014Z,0.97
2019-03-15T13:51:06.275Z,0.50
2019-03-15T13:53:42.104Z,2.07
2019-03-15T13:56:18.232Z,0.60
2019-03-15T13:58:57.202Z,0.70
2019-03-15T14:01:20.807Z,0.50
2019-03-15T14:03:51.383Z,0.30
2019-03-15T14:06:21.926Z,2.07
2019-03-15T14:08:52.408Z,0.27
2019-03-15T14:11:22.880Z,0.50
2019-03-15T14:13:53.409Z,0.30
2019-03-15T14:16:23.686Z,0.30
2019-03-15T14:18:54.181Z,0.30
2019-03-15T14:21:24.815Z,0.30
2019-03-15T14:23:55.551Z,0.20
2019-03-15T14:26:25.902Z,0.20
2019-03-15T14:28:57.687Z,0.40
2019-03-15T14:31:28.036Z,0.60
2019-03-15T14:33:59.356Z,0.40
2019-03-15T14:36:29.653Z,1.40
2019-03-15T14:39:00.117Z,0.20
2019-03-15T14:41:30.913Z,0.30
2019-03-15T14:44:01.332Z,0.30
2019-03-15T14:46:31.604Z,0.50
2019-03-15T14:49:02.791Z,0.30
2019-03-15T14:51:34.341Z,0.93
2019-03-15T14:54:06.228Z,0.60
2019-03-15T14:56:37.903Z,0.87
2019-03-15T14:59:08.562Z,1.50
2019-03-15T15:01:39.851Z,1.23
2019-03-15T15:04:11.563Z,0.60
2019-03-15T15:06:43.317Z,0.57
2019-03-15T15:09:13.930Z,0.43
2019-03-15T15:11:44.431Z,0.67
2019-03-15T15:14:14.833Z,0.40
2019-03-15T15:16:45.145Z,0.37
2019-03-15T15:19:15.799Z,0.50
2019-03-15T15:21:52.957Z,0.50
2019-03-15T15:24:25.510Z,0.93
2019-03-15T15:26:56.013Z,0.80
2019-03-15T15:29:26.610Z,1.17
2019-03-15T15:31:57.038Z,0.83
2019-03-15T15:34:28.473Z,1.23
2019-03-15T15:36:59.840Z,0.80
2019-03-15T15:39:32.977Z,0.80
2019-03-15T15:42:04.650Z,0.47
2019-03-15T15:44:37.456Z,1.70
2019-03-15T15:47:08.690Z,0.60
2019-03-15T15:49:43.380Z,2.03
2019-03-15T15:52:15.123Z,0.33
2019-03-15T15:54:50.144Z,0.47
2019-03-15T15:57:23.732Z,0.43
2019-03-15T15:59:55.150Z,0.20
2019-03-15T16:02:27.451Z,0.30
2019-03-15T16:04:57.908Z,0.73
2019-03-15T16:07:28.538Z,0.30
2019-03-15T16:09:59.889Z,0.27
2019-03-15T16:12:30.182Z,0.87
2019-03-15T16:15:00.612Z,0.40
2019-03-15T16:17:38.600Z,0.33
2019-03-15T16:20:09.809Z,0.70
2019-03-15T16:22:41.024Z,0.43
2019-03-15T16:25:13.508Z,1.40
2019-03-15T16:27:46.075Z,1.40
2019-03-15T16:30:17.407Z,0.60
2019-03-15T16:32:49.402Z,0.70
2019-03-15T16:35:21.632Z,1.70
2019-03-15T16:37:52.352Z,1.03
2019-03-15T16:40:22.815Z,0.70
2019-03-15T16:42:53.198Z,1.03
2019-03-15T16:45:24.437Z,2.40
2019-03-15T16:47:54.926Z,2.10
2019-03-15T16:50:25.217Z,2.00
2019-03-15T16:52:55.534Z,3.87
2019-03-15T16:55:26.307Z,3.87
2019-03-15T16:57:57.197Z,1.70
2019-03-15T17:00:29.857Z,2.73
2019-03-15T17:03:01.317Z,2.20
2019-03-15T17:05:32.690Z,1.67
2019-03-15T17:08:04.605Z,1.40
2019-03-15T17:10:35.825Z,0.90
2019-03-15T17:13:07.579Z,1.63
2019-03-15T17:15:42.519Z,2.40
2019-03-15T17:18:16.641Z,1.93
2019-03-15T17:20:47.867Z,1.83
2019-03-15T17:23:20.023Z,0.90
2019-03-15T17:25:51.238Z,1.40
2019-03-15T17:28:32.279Z,1.23
2019-03-15T17:31:10.126Z,1.70
2019-03-15T17:33:36.822Z,0.80
2019-03-15T17:36:07.111Z,0.90
2019-03-15T17:38:44.123Z,0.67
2019-03-15T17:41:14.490Z,0.60
2019-03-15T17:43:44.830Z,0.50
2019-03-15T17:46:15.178Z,0.40
2019-03-15T17:48:45.468Z,0.83
2019-03-15T17:51:16.654Z,0.50
2019-03-15T17:53:47.605Z,0.50
2019-03-15T17:56:18.315Z,0.60
2019-03-15T17:58:50.648Z,2.40
2019-03-15T18:01:24.451Z,0.50
2019-03-15T18:03:56.114Z,0.60
2019-03-15T18:06:27.418Z,0.70
2019-03-15T18:09:00.120Z,0.60
2019-03-15T18:11:32.490Z,2.00
2019-03-15T18:14:06.440Z,0.97
2019-03-15T18:16:42.618Z,0.60
2019-03-15T18:19:20.056Z,1.07
2019-03-15T18:21:51.353Z,0.60
2019-03-15T18:24:24.341Z,1.90
2019-03-15T18:27:03.839Z,2.87
2019-03-15T18:29:34.810Z,0.50
2019-03-15T18:32:05.620Z,0.40
2019-03-15T18:34:36.121Z,0.40
2019-03-15T18:37:07.198Z,0.60
2019-03-15T18:39:39.327Z,0.50
2019-03-15T18:42:09.708Z,0.80
2019-03-15T18:44:41.204Z,2.10
2019-03-15T18:47:11.723Z,1.23
2019-03-15T18:49:42.220Z,2.27
2019-03-15T18:52:13.433Z,1.27
2019-03-15T18:54:44.253Z,1.87
2019-03-15T18:57:17.849Z,1.53
2019-03-15T18:59:50.362Z,2.03
2019-03-15T19:02:20.696Z,1.63
2019-03-15T19:04:51.061Z,1.77
2019-03-15T19:07:22.241Z,1.20
2019-03-15T19:09:52.597Z,1.63
2019-03-15T19:12:22.899Z,2.43
2019-03-15T19:14:53.234Z,1.10
2019-03-15T19:17:23.589Z,1.03
2019-03-15T19:19:53.979Z,1.33
2019-03-15T19:22:26.270Z,1.20
2019-03-15T19:24:56.638Z,1.37
2019-03-15T19:27:26.979Z,0.60
2019-03-15T19:29:57.983Z,0.90
2019-03-15T19:32:28.594Z,0.50
2019-03-15T19:34:59.220Z,0.90
2019-03-15T19:37:29.722Z,0.73
2019-03-15T19:40:00.376Z,0.70
2019-03-15T19:42:30.982Z,1.03
2019-03-15T19:45:01.478Z,1.73
2019-03-15T19:47:32.649Z,0.80
2019-03-15T19:50:04.223Z,1.27
2019-03-15T19:52:34.868Z,0.80
2019-03-15T19:55:05.986Z,1.00
2019-03-15T19:57:36.629Z,1.10
2019-03-15T20:00:08.882Z,0.73
2019-03-15T20:02:40.691Z,0.77
2019-03-15T20:05:11.760Z,0.80
2019-03-15T20:07:43.167Z,1.17
2019-03-15T20:10:16.530Z,8.17
2019-03-15T20:12:46.541Z,1.33
2019-03-15T20:15:17.052Z,1.73
2019-03-15T20:17:48.359Z,1.43
2019-03-15T20:20:18.776Z,0.90
2019-03-15T20:22:49.980Z,0.67
2019-03-15T20:25:20.537Z,0.50
2019-03-15T20:27:50.937Z,1.37
2019-03-15T20:30:26.263Z,1.53
2019-03-15T20:32:53.673Z,0.67
2019-03-15T20:35:24.014Z,0.67
2019-03-15T20:37:54.852Z,0.70
2019-03-15T20:40:25.172Z,0.70
2019-03-15T20:42:55.743Z,0.30
2019-03-15T20:45:26.792Z,1.13
2019-03-15T20:47:57.913Z,0.47
2019-03-15T20:50:28.447Z,1.50
2019-03-15T20:53:09.537Z,0.60
2019-03-15T20:55:31.137Z,1.03
2019-03-15T20:58:02.534Z,0.73
2019-03-15T21:00:35.993Z,0.60
2019-03-15T21:03:07.303Z,0.87
2019-03-15T21:05:38.039Z,0.50
2019-03-15T21:08:08.461Z,0.80
2019-03-15T21:10:38.799Z,0.67
2019-03-15T21:13:09.325Z,0.67
2019-03-15T21:15:41.558Z,0.93
2019-03-15T21:18:14.459Z,0.70
2019-03-15T21:20:44.830Z,0.50
2019-03-15T21:23:15.318Z,0.30
2019-03-15T21:25:45.790Z,0.60
2019-03-15T21:28:16.644Z,0.57
2019-03-15T21:30:53.058Z,0.50
2019-03-15T21:33:28.438Z,1.53
2019-03-15T21:36:01.178Z,2.13
2019-03-15T21:38:31.102Z,0.80
2019-03-15T21:41:01.769Z,0.83
2019-03-15T21:43:32.574Z,1.67
2019-03-15T21:46:03.843Z,1.33
2019-03-15T21:48:34.259Z,1.40
2019-03-15T21:51:04.808Z,2.03
2019-03-15T21:53:35.547Z,0.80
2019-03-15T21:56:07.685Z,0.90
2019-03-15T21:58:39.929Z,1.00
2019-03-15T22:01:10.596Z,1.60
2019-03-15T22:03:41.093Z,2.23
2019-03-15T22:06:11.486Z,0.70
2019-03-15T22:08:42.008Z,0.70
2019-03-15T22:11:20.965Z,0.60
2019-03-15T22:13:45.567Z,1.00
2019-03-15T22:16:16.931Z,0.63
2019-03-15T22:18:47.596Z,0.80
2019-03-15T22:21:17.933Z,1.70
2019-03-15T22:23:56.185Z,2.40
2019-03-15T22:29:34.426Z,1.13
2019-03-15T22:32:04.974Z,1.07
2019-03-15T22:34:45.868Z,1.20
2019-03-15T22:37:54.604Z,1.23
2019-03-15T22:40:32.939Z,0.50
2019-03-15T22:43:10.521Z,1.20
2019-03-15T22:45:43.674Z,1.10
2019-03-15T22:48:14.114Z,0.73
2019-03-15T22:50:50.959Z,1.20
2019-03-15T22:53:23.010Z,1.20
2019-03-15T22:55:58.284Z,0.80
2019-03-15T22:58:30.620Z,1.10
2019-03-15T23:01:01.036Z,0.60
2019-03-15T23:03:33.378Z,0.50
2019-03-15T23:06:04.112Z,0.60
2019-03-15T23:08:34.753Z,0.70
2019-03-15T23:11:05.070Z,1.13
2019-03-15T23:13:35.429Z,0.50
2019-03-15T23:16:08.033Z,0.30
2019-03-15T23:18:39.617Z,1.70
2019-03-15T23:21:09.985Z,0.50
2019-03-15T23:23:40.332Z,1.23
2019-03-15T23:26:12.275Z,0.40
2019-03-15T23:28:47.097Z,0.43
2019-03-15T23:31:18.359Z,0.70
2019-03-15T23:33:48.636Z,0.77
2019-03-15T23:36:19.962Z,1.57
2019-03-15T23:38:50.235Z,0.50
2019-03-15T23:41:20.555Z,0.60
2019-03-15T23:43:50.842Z,0.57
2019-03-15T23:46:21.229Z,1.60
2019-03-15T23:48:51.523Z,0.40
2019-03-15T23:51:21.876Z,0.60
2019-03-15T23:53:52.189Z,0.50
2019-03-15T23:56:22.557Z,0.50
2019-03-15T23:58:52.817Z,0.30
